Brisbane - nearby METAR Reports

YBBN - Brisbane Intl Ar, Australia
Distance from station: NNE 11km
Updated: 11/12/2018 20:00
Mostly cloudy
Mostly cloudy
 Wind from E
Wind: E 13 km/h
Temperature: 24°C
Dew Point: 19°C
Humidity: 74%
Barometer: 1015 hPa
Clouds: Mostly cloudy
Visibility: 10 km
Cloud details: Partly cloudy 610 m
Mostly cloudy 1890 m
2018/12/11 10:00 YBBN 111000Z 08007KT 9999 SCT020 BKN062 24/19 Q1015
YAMB - Amberley, Australia
Distance from station: WSW 42km
Updated: 11/12/2018 20:00
Overcast
Overcast
 Wind from ENE
Wind: ENE 17 km/h
Temperature: 24°C
Dew Point: 18°C
Humidity: 69%
Barometer: 1015 hPa
Clouds: Overcast
Visibility: 10 km
Cloud details: Overcast 1737 m
2018/12/11 10:00 YAMB 111000Z AUTO 07009KT 9999 // OVC057 24/18 Q1015
 
YBCG - Coolangatta Aws, Australia
Distance from station: SSE 102km
Updated: 11/12/2018 20:00
Partly cloudy
Partly cloudy
 Wind from SE
Wind: SE 7 km/h
Temperature: 22°C
Dew Point: 19°C
Humidity: 83%
Barometer: 1016 hPa
Clouds: Partly cloudy
Visibility: 10 km
Cloud details: Partly cloudy 701 m
2018/12/11 10:00 YBCG 111000Z AUTO 14004KT 9999 // SCT023 22/19 Q1016